Time;durP1;ratioP1;P1;durP2;ratioP2;P2;SDS_P1;SDS_P2;PMS_P1;PMS_P2;Temp;Humidity;BMP_temperature;BMP_pressure;BME280_temperature;BME280_humidity;BME280_pressure;Samples;Min_cycle;Max_cycle;Signal;HPM_P1;HPM_P2
2023/07/28 00:00:10;;;;;;;4.93;3.10;;;15.90;99.90;;;;;;5053545;28;20311;-74
2023/07/28 00:02:38;;;;;;;4.43;3.10;;;15.90;99.90;;;;;;5053114;28;20215;-78
2023/07/28 00:05:07;;;;;;;3.80;3.00;;;15.80;99.90;;;;;;5035699;28;20697;-76
2023/07/28 00:07:36;;;;;;;5.60;3.10;;;15.80;99.90;;;;;;5034123;28;20275;-75
2023/07/28 00:10:05;;;;;;;5.33;3.40;;;15.80;99.90;;;;;;5033777;28;20236;-75
2023/07/28 00:12:33;;;;;;;4.33;3.23;;;15.80;99.90;;;;;;5033601;28;20664;-74
2023/07/28 00:15:01;;;;;;;4.03;3.33;;;15.80;99.90;;;;;;5033740;28;20291;-74
2023/07/28 00:17:31;;;;;;;4.87;3.07;;;15.80;99.90;;;;;;5033045;28;20256;-75
2023/07/28 00:19:59;;;;;;;7.53;3.40;;;15.80;99.90;;;;;;5033056;28;20205;-76
2023/07/28 00:22:27;;;;;;;5.00;3.20;;;15.80;99.90;;;;;;5033285;28;20553;-74
2023/07/28 00:24:55;;;;;;;5.90;3.23;;;15.80;99.90;;;;;;5033446;28;20220;-76
2023/07/28 00:27:23;;;;;;;3.90;3.00;;;15.80;99.90;;;;;;5032990;28;20209;-74
2023/07/28 00:29:51;;;;;;;3.80;3.20;;;15.80;99.90;;;;;;5033076;28;20288;-74
2023/07/28 00:32:19;;;;;;;5.90;3.13;;;15.80;99.90;;;;;;5033263;28;20304;-74
2023/07/28 00:34:49;;;;;;;5.00;3.00;;;15.80;99.90;;;;;;5048632;28;20208;-74
2023/07/28 00:37:17;;;;;;;5.03;3.33;;;15.70;99.90;;;;;;5053169;28;20291;-75
2023/07/28 00:39:45;;;;;;;4.20;3.23;;;15.60;99.90;;;;;;5051949;28;20620;-74
2023/07/28 00:42:13;;;;;;;5.63;3.03;;;15.60;99.90;;;;;;5052849;28;20215;-76
2023/07/28 00:44:41;;;;;;;4.47;3.50;;;15.50;99.90;;;;;;5053134;28;20306;-74
2023/07/28 00:47:09;;;;;;;3.53;3.10;;;15.40;99.90;;;;;;5051587;28;20215;-74
2023/07/28 00:49:38;;;;;;;3.43;3.03;;;15.40;99.90;;;;;;5052987;28;20255;-75
2023/07/28 00:52:09;;;;;;;4.20;3.10;;;15.30;99.90;;;;;;5052771;28;20550;-75
2023/07/28 00:54:37;;;;;;;5.40;3.30;;;15.30;99.90;;;;;;5052870;28;20239;-75
2023/07/28 00:57:06;;;;;;;6.07;3.50;;;15.20;99.90;;;;;;5040784;28;20686;-75
2023/07/28 00:59:34;;;;;;;4.73;3.53;;;15.10;99.90;;;;;;5032913;28;20209;-74
2023/07/28 01:02:03;;;;;;;3.57;3.13;;;15.10;99.90;;;;;;5032296;28;20677;-75
2023/07/28 01:04:31;;;;;;;4.20;3.57;;;15.00;99.90;;;;;;5032825;28;20205;-74
2023/07/28 01:07:15;;;;;;;4.23;3.33;;;15.00;99.90;;;;;;5031929;28;20231;-74
2023/07/28 01:09:51;;;;;;;4.27;3.50;;;14.90;99.90;;;;;;5032537;28;20212;-75
2023/07/28 01:12:19;;;;;;;4.23;3.20;;;14.90;99.90;;;;;;5032244;28;20189;-74
2023/07/28 01:14:47;;;;;;;4.60;3.33;;;14.90;99.90;;;;;;5032687;28;20244;-74
2023/07/28 01:17:15;;;;;;;4.57;3.67;;;14.90;99.90;;;;;;5032674;28;20216;-74
2023/07/28 01:19:43;;;;;;;4.60;3.83;;;14.80;99.90;;;;;;5032469;28;20205;-75
2023/07/28 01:22:37;;;;;;;5.07;3.20;;;14.80;99.90;;;;;;5031786;28;20216;-76
2023/07/28 01:25:15;;;;;;;3.87;3.10;;;14.80;99.90;;;;;;5014964;28;20316;-75
2023/07/28 01:27:45;;;;;;;5.43;3.67;;;14.70;99.90;;;;;;5032449;28;20209;-75
2023/07/28 01:30:14;;;;;;;5.17;3.43;;;14.70;99.90;;;;;;5032793;28;20271;-79
2023/07/28 01:32:42;;;;;;;4.57;3.30;;;14.70;99.90;;;;;;5041606;28;20592;-76
2023/07/28 01:35:10;;;;;;;4.30;3.40;;;14.70;99.90;;;;;;5052064;28;20236;-76
2023/07/28 01:37:38;;;;;;;6.33;3.40;;;14.70;99.90;;;;;;5051596;28;20306;-75
2023/07/28 01:40:08;;;;;;;4.50;3.30;;;14.70;99.90;;;;;;5034831;28;20208;-79
2023/07/28 01:42:36;;;;;;;4.70;3.90;;;14.60;99.90;;;;;;5031617;28;20212;-76
2023/07/28 01:45:07;;;;;;;5.77;3.50;;;14.60;99.90;;;;;;5031855;28;20212;-73
2023/07/28 01:47:35;;;;;;;6.23;3.50;;;14.60;99.90;;;;;;5032033;28;20283;-77
2023/07/28 01:50:03;;;;;;;6.30;3.63;;;14.70;99.90;;;;;;5032274;28;20274;-75
2023/07/28 01:52:31;;;;;;;4.60;3.70;;;14.70;99.90;;;;;;5031921;28;20235;-74
2023/07/28 01:54:59;;;;;;;6.93;3.60;;;14.70;99.90;;;;;;5032249;28;20555;-76
2023/07/28 01:57:28;;;;;;;3.40;3.10;;;14.70;99.90;;;;;;5032362;28;20783;-77
2023/07/28 01:59:56;;;;;;;4.87;3.60;;;14.70;99.90;;;;;;5032097;28;20209;-73
2023/07/28 02:02:25;;;;;;;5.17;3.50;;;14.70;99.90;;;;;;5031486;28;20609;-77
2023/07/28 02:04:53;;;;;;;4.03;3.30;;;14.70;99.90;;;;;;5031511;28;20659;-74
2023/07/28 02:07:21;;;;;;;4.97;3.27;;;14.80;99.90;;;;;;5042239;28;20227;-75
2023/07/28 02:09:50;;;;;;;5.03;3.13;;;14.70;99.90;;;;;;5051314;28;20247;-76
2023/07/28 02:12:18;;;;;;;3.93;3.33;;;14.70;99.90;;;;;;5051447;28;20310;-74
2023/07/28 02:14:46;;;;;;;3.90;3.20;;;14.60;99.90;;;;;;5051552;28;20236;-73
2023/07/28 02:17:14;;;;;;;4.07;3.37;;;14.60;99.90;;;;;;5032903;28;20240;-74
2023/07/28 02:19:43;;;;;;;3.50;3.20;;;14.50;99.90;;;;;;5032947;28;20232;-74
2023/07/28 02:22:11;;;;;;;4.57;3.60;;;14.50;99.90;;;;;;5032047;28;20275;-75
2023/07/28 02:24:39;;;;;;;4.70;3.10;;;14.50;99.90;;;;;;5036123;28;20213;-74
2023/07/28 02:27:08;;;;;;;5.07;3.40;;;14.50;99.90;;;;;;5037526;28;20235;-77
2023/07/28 02:29:36;;;;;;;4.63;3.57;;;14.40;99.90;;;;;;5035314;28;20247;-76
2023/07/28 02:32:04;;;;;;;4.97;3.20;;;14.40;99.90;;;;;;5046078;28;20339;-77
2023/07/28 02:34:32;;;;;;;4.57;3.00;;;14.40;99.90;;;;;;5035934;28;20259;-73
2023/07/28 02:37:02;;;;;;;3.83;2.97;;;14.30;99.90;;;;;;5034965;28;20212;-75
2023/07/28 02:39:30;;;;;;;5.17;3.00;;;14.30;99.90;;;;;;5035896;28;20304;-75
2023/07/28 02:41:58;;;;;;;3.53;3.10;;;14.30;99.90;;;;;;5034443;28;20259;-74
2023/07/28 02:44:26;;;;;;;4.93;3.37;;;14.30;99.90;;;;;;5035047;28;20706;-73
2023/07/28 02:46:54;;;;;;;3.87;3.43;;;14.30;99.90;;;;;;5034658;28;20255;-74
2023/07/28 02:49:22;;;;;;;3.80;3.13;;;14.30;99.90;;;;;;5035897;28;20213;-76
2023/07/28 02:51:50;;;;;;;6.37;3.57;;;14.20;99.90;;;;;;5035319;28;20271;-77
2023/07/28 02:54:21;;;;;;;3.83;3.43;;;14.20;99.90;;;;;;5035807;28;20209;-74
2023/07/28 02:56:49;;;;;;;3.23;2.93;;;14.20;99.90;;;;;;5035094;28;20248;-74
2023/07/28 02:59:17;;;;;;;4.70;3.30;;;14.10;99.90;;;;;;5034638;28;20205;-75
2023/07/28 03:01:45;;;;;;;4.20;3.00;;;14.10;99.90;;;;;;5034677;28;20209;-75
2023/07/28 03:04:13;;;;;;;4.77;3.00;;;14.00;99.90;;;;;;5034767;28;20299;-76
2023/07/28 03:06:41;;;;;;;4.47;3.20;;;14.00;99.90;;;;;;5034559;28;20216;-75
2023/07/28 03:09:09;;;;;;;4.30;3.10;;;14.00;99.90;;;;;;5052096;28;20200;-74
2023/07/28 03:11:39;;;;;;;4.80;3.20;;;13.90;99.90;;;;;;5054446;28;20628;-75
2023/07/28 03:14:07;;;;;;;4.67;3.20;;;14.00;99.90;;;;;;5054999;28;20287;-77
2023/07/28 03:16:35;;;;;;;3.77;2.90;;;13.90;99.90;;;;;;5046256;28;20272;-76
2023/07/28 03:19:04;;;;;;;4.57;3.03;;;13.90;99.90;;;;;;5038738;28;20208;-77
2023/07/28 03:21:32;;;;;;;4.07;3.23;;;13.90;99.90;;;;;;5043422;28;20247;-74
2023/07/28 03:24:00;;;;;;;4.63;3.30;;;13.80;99.90;;;;;;5043881;28;20457;-74
2023/07/28 03:26:29;;;;;;;4.20;3.03;;;13.80;99.90;;;;;;5042123;28;20619;-75
2023/07/28 03:28:58;;;;;;;6.57;2.90;;;13.80;99.90;;;;;;5054788;28;20255;-74
2023/07/28 03:31:26;;;;;;;4.60;3.10;;;13.80;99.90;;;;;;5053624;28;20270;-76
2023/07/28 03:33:54;;;;;;;6.23;3.23;;;13.80;99.90;;;;;;5052915;28;20663;-77
2023/07/28 03:36:22;;;;;;;5.40;3.07;;;13.80;99.90;;;;;;5053003;28;20208;-77
2023/07/28 03:38:50;;;;;;;5.97;3.50;;;13.80;99.90;;;;;;5039620;28;20237;-77
2023/07/28 03:41:18;;;;;;;5.57;2.90;;;13.70;99.90;;;;;;5037293;28;20209;-74
2023/07/28 03:43:47;;;;;;;3.57;2.63;;;13.80;99.90;;;;;;5053377;28;20212;-74
2023/07/28 03:46:16;;;;;;;5.53;3.20;;;13.80;99.90;;;;;;5053913;28;20228;-74
2023/07/28 03:48:44;;;;;;;4.40;3.03;;;13.80;99.90;;;;;;5053800;28;20212;-78
2023/07/28 03:51:13;;;;;;;5.87;3.00;;;13.80;99.90;;;;;;5046696;28;20224;-76
2023/07/28 03:53:41;;;;;;;3.73;3.10;;;13.80;99.90;;;;;;5033761;28;20229;-74
2023/07/28 03:56:09;;;;;;;4.93;3.27;;;13.80;99.90;;;;;;5034146;28;20204;-74
2023/07/28 03:58:37;;;;;;;3.70;2.80;;;13.70;99.90;;;;;;5034616;28;20302;-75
2023/07/28 04:01:07;;;;;;;4.60;2.80;;;13.80;99.90;;;;;;5033749;28;20232;-74
2023/07/28 04:03:38;;;;;;;5.73;3.20;;;13.80;99.90;;;;;;5033714;28;20208;-77
2023/07/28 04:06:10;;;;;;;6.10;2.80;;;13.80;99.90;;;;;;5033484;28;20217;-73
2023/07/28 04:08:39;;;;;;;3.93;2.90;;;13.80;99.90;;;;;;5033546;28;20271;-75
2023/07/28 04:11:07;;;;;;;5.27;3.33;;;13.80;99.90;;;;;;5033502;28;20240;-74
2023/07/28 04:13:35;;;;;;;3.27;2.57;;;13.80;99.90;;;;;;5032553;28;20287;-76
2023/07/28 04:16:03;;;;;;;5.73;3.07;;;13.80;99.90;;;;;;5032832;28;20208;-72
2023/07/28 04:18:32;;;;;;;4.73;2.87;;;13.80;99.90;;;;;;5033077;28;20217;-77
2023/07/28 04:21:02;;;;;;;4.90;3.00;;;13.90;99.90;;;;;;5033203;28;20216;-74
2023/07/28 04:23:30;;;;;;;5.70;3.07;;;13.90;99.90;;;;;;5032841;28;20319;-75
2023/07/28 04:25:58;;;;;;;3.17;2.83;;;13.90;99.90;;;;;;5032408;28;20685;-75
2023/07/28 04:28:26;;;;;;;3.20;2.63;;;13.90;99.90;;;;;;5042641;28;20262;-74
2023/07/28 04:30:54;;;;;;;5.30;2.87;;;14.00;99.90;;;;;;5052785;28;20650;-75
2023/07/28 04:33:22;;;;;;;3.67;2.73;;;14.00;99.90;;;;;;5052792;28;20411;-74
2023/07/28 04:35:51;;;;;;;5.40;2.87;;;14.10;99.90;;;;;;5051576;28;20208;-75
2023/07/28 04:38:20;;;;;;;4.13;2.93;;;14.10;99.90;;;;;;5052666;28;20255;-76
2023/07/28 04:40:48;;;;;;;5.33;3.00;;;14.20;99.90;;;;;;5054291;28;20208;-76
2023/07/28 04:43:16;;;;;;;4.27;2.53;;;14.30;99.90;;;;;;5055482;28;20236;-76
2023/07/28 04:45:45;;;;;;;5.00;2.60;;;14.40;99.90;;;;;;5041495;28;20291;-76
2023/07/28 04:48:14;;;;;;;4.87;3.00;;;14.60;99.90;;;;;;5037297;28;20220;-75
2023/07/28 04:50:42;;;;;;;4.93;2.80;;;14.70;99.90;;;;;;5035699;28;20475;-73
2023/07/28 04:53:10;;;;;;;4.30;2.70;;;14.80;99.90;;;;;;5032448;28;20225;-73
2023/07/28 04:55:39;;;;;;;4.37;2.70;;;14.90;99.90;;;;;;5032297;28;20213;-76
2023/07/28 04:58:07;;;;;;;5.07;3.07;;;14.90;99.90;;;;;;5032275;28;20244;-76
2023/07/28 05:00:35;;;;;;;3.90;2.70;;;14.90;99.90;;;;;;5032571;28;20646;-77
2023/07/28 05:03:04;;;;;;;4.50;2.70;;;15.00;99.90;;;;;;5032775;28;20205;-77
2023/07/28 05:05:32;;;;;;;3.30;2.73;;;15.00;99.90;;;;;;5032912;28;20726;-75
2023/07/28 05:08:00;;;;;;;5.80;2.97;;;15.10;99.90;;;;;;5032672;28;20275;-75
2023/07/28 05:10:29;;;;;;;3.43;2.80;;;15.10;99.90;;;;;;5032068;28;20263;-74
2023/07/28 05:12:58;;;;;;;3.93;2.67;;;15.20;99.90;;;;;;5031934;28;20283;-75
2023/07/28 05:15:26;;;;;;;3.87;2.60;;;15.30;99.90;;;;;;5032567;28;20209;-74
2023/07/28 05:17:54;;;;;;;4.20;2.60;;;15.30;99.90;;;;;;5032814;28;20213;-75
2023/07/28 05:20:22;;;;;;;4.70;2.67;;;15.40;99.90;;;;;;5032338;28;20713;-74
2023/07/28 05:22:50;;;;;;;4.40;2.70;;;15.50;99.90;;;;;;5032539;28;20201;-74
2023/07/28 05:25:18;;;;;;;5.63;2.70;;;15.50;99.90;;;;;;5032476;28;20240;-75
2023/07/28 05:27:46;;;;;;;3.10;2.60;;;15.60;99.90;;;;;;5041990;28;20391;-74
2023/07/28 05:30:16;;;;;;;3.53;2.67;;;15.60;99.90;;;;;;5050479;28;20560;-74
2023/07/28 05:32:46;;;;;;;2.90;2.40;;;15.70;99.90;;;;;;5051414;28;20232;-75
2023/07/28 05:35:15;;;;;;;2.57;2.37;;;15.80;99.90;;;;;;5051995;28;20235;-74
2023/07/28 05:37:43;;;;;;;2.87;2.40;;;15.90;99.90;;;;;;5044815;28;20266;-75
2023/07/28 05:40:13;;;;;;;2.47;2.27;;;16.10;99.90;;;;;;5051943;28;20213;-73
2023/07/28 05:42:41;;;;;;;4.20;2.70;;;16.30;99.90;;;;;;5052075;28;20208;-73
2023/07/28 05:45:10;;;;;;;5.50;2.63;;;16.40;99.90;;;;;;5041539;28;20231;-75
2023/07/28 05:47:40;;;;;;;3.37;2.57;;;16.70;99.90;;;;;;5031726;28;20212;-74
2023/07/28 05:50:09;;;;;;;4.47;2.70;;;16.90;99.90;;;;;;5031917;28;20311;-74
2023/07/28 05:52:37;;;;;;;3.70;2.40;;;17.10;99.90;;;;;;5031428;28;20248;-74
2023/07/28 05:55:06;;;;;;;3.63;2.63;;;17.20;99.90;;;;;;5047166;28;20205;-76
2023/07/28 05:57:34;;;;;;;2.73;2.40;;;17.40;99.90;;;;;;5034337;28;20209;-74
2023/07/28 06:00:02;;;;;;;3.10;2.30;;;17.50;99.90;;;;;;5045089;28;20216;-75
2023/07/28 06:02:30;;;;;;;3.10;2.40;;;17.60;99.90;;;;;;5054555;28;20205;-75
2023/07/28 06:05:00;;;;;;;4.23;2.77;;;17.60;99.90;;;;;;5054070;28;20211;-74
2023/07/28 06:07:28;;;;;;;5.00;2.60;;;17.70;99.90;;;;;;5054799;28;20228;-73
2023/07/28 06:09:56;;;;;;;2.43;2.23;;;17.80;99.90;;;;;;5055086;28;20204;-75
2023/07/28 06:12:24;;;;;;;3.83;2.60;;;18.10;99.90;;;;;;5036869;28;20246;-76
2023/07/28 06:14:52;;;;;;;7.00;2.60;;;18.30;99.90;;;;;;5035478;28;20307;-75
2023/07/28 06:17:20;;;;;;;3.90;2.50;;;18.50;99.90;;;;;;5035228;28;20236;-74
2023/07/28 06:19:49;;;;;;;3.70;2.30;;;18.80;99.90;;;;;;5035236;28;20205;-73
2023/07/28 06:22:18;;;;;;;4.03;2.47;;;19.50;99.90;;;;;;5035051;28;20629;-74
2023/07/28 06:24:46;;;;;;;2.97;2.50;;;20.10;99.90;;;;;;5037798;28;20625;-75
2023/07/28 06:27:14;;;;;;;3.40;2.30;;;20.50;99.90;;;;;;5048846;28;20255;-77
2023/07/28 06:29:42;;;;;;;3.30;2.50;;;20.60;99.90;;;;;;5035322;28;20264;-75
2023/07/28 06:32:10;;;;;;;2.97;2.67;;;20.50;99.90;;;;;;5034714;28;20204;-74
2023/07/28 06:34:38;;;;;;;4.47;2.47;;;20.30;99.90;;;;;;5036076;28;20637;-75
2023/07/28 06:37:07;;;;;;;4.40;2.40;;;20.30;99.90;;;;;;5055228;28;20332;-74
2023/07/28 06:39:36;;;;;;;4.10;2.37;;;20.40;99.90;;;;;;5054991;28;20208;-76
2023/07/28 06:42:05;;;;;;;5.70;2.40;;;20.40;99.90;;;;;;5054804;28;20208;-73
2023/07/28 06:44:33;;;;;;;4.00;2.60;;;20.70;99.90;;;;;;5037965;28;20209;-74
2023/07/28 06:47:02;;;;;;;3.03;2.37;;;21.30;99.90;;;;;;5035559;28;20215;-76
2023/07/28 06:49:30;;;;;;;2.93;2.50;;;22.10;99.90;;;;;;5034768;28;20224;-75
2023/07/28 06:51:58;;;;;;;3.93;2.40;;;22.90;99.90;;;;;;5034340;28;20255;-77
2023/07/28 06:54:26;;;;;;;3.27;2.40;;;23.50;99.90;;;;;;5035536;28;20319;-75
2023/07/28 06:56:56;;;;;;;3.70;2.27;;;23.60;99.90;;;;;;5035078;28;20755;-75
2023/07/28 06:59:24;;;;;;;3.60;2.30;;;24.20;99.90;;;;;;5035645;28;20209;-77
2023/07/28 07:01:52;;;;;;;2.97;2.20;;;24.90;99.90;;;;;;5034351;28;20655;-77
2023/07/28 07:04:20;;;;;;;3.50;2.23;;;25.80;97.90;;;;;;5036334;28;20215;-77
2023/07/28 07:06:48;;;;;;;4.22;2.30;;;26.70;96.40;;;;;;5034431;28;20225;-79
2023/07/28 07:09:16;;;;;;;2.55;2.00;;;27.70;93.80;;;;;;5047634;28;20722;-79
2023/07/28 07:11:45;;;;;;;3.55;2.50;;;28.00;90.80;;;;;;5054608;28;20278;-77
2023/07/28 07:14:15;;;;;;;2.22;2.00;;;28.10;88.90;;;;;;5054018;28;20232;-79
2023/07/28 07:16:43;;;;;;;2.70;2.00;;;27.80;89.20;;;;;;5052373;28;20623;-79
2023/07/28 07:19:11;;;;;;;4.00;2.20;;;28.30;86.80;;;;;;5054005;28;20243;-78
2023/07/28 07:21:39;;;;;;;2.88;2.10;;;28.20;84.30;;;;;;5054485;28;20258;-77
2023/07/28 07:24:09;;;;;;;3.47;2.17;;;27.50;88.90;;;;;;5054089;28;20688;-77
2023/07/28 07:26:38;;;;;;;2.90;2.30;;;28.30;83.70;;;;;;5053244;28;20208;-78
2023/07/28 07:29:06;;;;;;;3.35;1.92;;;28.70;79.60;;;;;;5053757;28;20219;-79
2023/07/28 07:31:35;;;;;;;3.35;2.35;;;27.80;82.70;;;;;;5050171;28;20664;-76
2023/07/28 07:34:04;;;;;;;3.35;2.20;;;27.10;87.10;;;;;;5054155;28;20220;-77
2023/07/28 07:36:33;;;;;;;3.45;2.40;;;26.10;90.80;;;;;;5054251;28;20212;-76
2023/07/28 07:39:01;;;;;;;5.03;2.40;;;25.70;92.30;;;;;;5051280;28;20255;-77
2023/07/28 07:41:30;;;;;;;2.53;2.10;;;25.30;93.30;;;;;;5033584;28;20582;-76
2023/07/28 07:43:58;;;;;;;3.70;1.92;;;26.00;94.00;;;;;;5033037;28;20720;-78
2023/07/28 07:46:26;;;;;;;2.97;2.20;;;26.90;92.40;;;;;;5032434;28;20629;-79
2023/07/28 07:48:56;;;;;;;3.28;2.22;;;27.10;90.50;;;;;;5045221;28;20625;-75
2023/07/28 07:51:24;;;;;;;4.20;2.20;;;26.90;90.50;;;;;;5052710;28;20255;-75
2023/07/28 07:53:52;;;;;;;4.20;2.10;;;27.30;87.90;;;;;;5051720;28;20297;-76
2023/07/28 07:56:20;;;;;;;4.60;2.30;;;27.70;86.90;;;;;;5039314;28;20240;-75
2023/07/28 07:58:49;;;;;;;3.13;2.20;;;27.60;85.50;;;;;;5031763;28;20217;-80
2023/07/28 08:01:17;;;;;;;3.25;2.28;;;27.50;85.00;;;;;;5036702;28;20621;-77
2023/07/28 08:03:45;;;;;;;2.85;2.25;;;26.80;86.30;;;;;;5032016;28;20219;-76
2023/07/28 08:06:15;;;;;;;2.97;2.30;;;27.10;88.60;;;;;;5032959;28;20227;-78
2023/07/28 08:08:43;;;;;;;2.60;2.30;;;27.40;86.20;;;;;;5035243;28;20236;-77
2023/07/28 08:11:12;;;;;;;2.70;1.80;;;27.90;86.50;;;;;;5035328;28;20570;-78
2023/07/28 08:13:40;;;;;;;2.30;2.10;;;28.50;86.00;;;;;;5034290;28;20729;-78
2023/07/28 08:16:08;;;;;;;3.17;2.08;;;29.10;79.20;;;;;;5034265;28;20213;-77
2023/07/28 08:18:37;;;;;;;2.65;1.90;;;29.30;76.00;;;;;;5034851;28;20205;-78
2023/07/28 08:21:06;;;;;;;3.30;2.13;;;29.20;78.40;;;;;;5034494;28;20201;-77
2023/07/28 08:23:35;;;;;;;3.42;1.98;;;29.80;81.80;;;;;;5047912;28;20227;-77
2023/07/28 08:26:03;;;;;;;3.42;2.05;;;30.30;74.60;;;;;;5052862;28;20200;-76
2023/07/28 08:28:32;;;;;;;2.17;1.90;;;29.70;73.60;;;;;;5053935;28;20211;-74
2023/07/28 08:31:01;;;;;;;3.83;1.98;;;29.00;73.20;;;;;;5053310;28;20212;-75
2023/07/28 08:33:29;;;;;;;3.15;2.10;;;28.30;77.20;;;;;;5052970;28;20262;-77
2023/07/28 08:35:57;;;;;;;4.20;2.03;;;27.20;79.40;;;;;;5053694;28;20253;-75
2023/07/28 08:38:28;;;;;;;2.17;1.98;;;27.20;83.50;;;;;;5053054;28;20666;-77
2023/07/28 08:40:59;;;;;;;3.10;2.00;;;27.10;86.40;;;;;;5044984;28;20255;-74
2023/07/28 08:43:27;;;;;;;3.67;2.13;;;27.20;83.30;;;;;;5032792;28;20209;-77
2023/07/28 08:45:56;;;;;;;3.65;2.45;;;27.20;86.30;;;;;;5032635;28;20213;-77
2023/07/28 08:48:24;;;;;;;2.35;2.05;;;27.00;86.90;;;;;;5033120;28;20205;-76
2023/07/28 08:50:53;;;;;;;4.28;2.10;;;27.30;84.80;;;;;;5033405;28;20208;-78
2023/07/28 08:53:22;;;;;;;3.15;2.25;;;27.50;87.40;;;;;;5032750;28;20209;-76
2023/07/28 08:55:50;;;;;;;3.08;2.00;;;27.60;83.70;;;;;;5032737;28;20231;-76
2023/07/28 08:58:21;;;;;;;3.95;2.40;;;28.10;82.70;;;;;;5032564;28;20220;-76
2023/07/28 09:00:50;;;;;;;5.85;2.20;;;28.50;81.30;;;;;;5032823;28;20193;-76
2023/07/28 09:03:19;;;;;;;2.47;2.00;;;28.00;79.50;;;;;;5032926;28;20219;-76
2023/07/28 09:05:47;;;;;;;5.87;2.20;;;27.60;80.20;;;;;;5034953;28;20266;-77
2023/07/28 09:08:16;;;;;;;3.60;2.10;;;26.90;82.00;;;;;;5052834;28;20223;-78
2023/07/28 09:10:46;;;;;;;4.07;2.10;;;26.70;84.00;;;;;;5052253;28;20650;-76
2023/07/28 09:13:16;;;;;;;4.67;2.17;;;26.70;88.50;;;;;;5052961;28;20207;-77
2023/07/28 09:15:46;;;;;;;4.30;2.20;;;26.60;85.20;;;;;;5042516;28;20602;-76
2023/07/28 09:18:17;;;;;;;3.30;2.20;;;26.50;87.10;;;;;;5033484;28;20262;-75
2023/07/28 09:20:45;;;;;;;4.57;2.30;;;26.40;85.00;;;;;;5036356;28;20204;-78
2023/07/28 09:23:15;;;;;;;2.80;2.23;;;26.10;87.30;;;;;;5051614;28;20212;-75
2023/07/28 09:25:43;;;;;;;4.10;2.30;;;25.70;87.10;;;;;;5035187;28;20228;-79
2023/07/28 09:28:12;;;;;;;4.27;2.30;;;25.60;91.00;;;;;;5033019;28;20240;-77
2023/07/28 09:30:50;;;;;;;2.93;2.30;;;25.60;89.50;;;;;;5033017;28;20232;-80
2023/07/28 09:33:31;;;;;;;3.23;2.43;;;25.10;90.20;;;;;;5034084;28;20212;-76
2023/07/28 09:36:08;;;;;;;4.00;2.43;;;24.80;91.30;;;;;;5037342;28;20292;-76
2023/07/28 09:38:40;;;;;;;3.93;2.50;;;24.70;92.20;;;;;;5036504;28;20294;-75
2023/07/28 09:41:10;;;;;;;4.93;2.57;;;24.40;93.10;;;;;;5045100;28;20669;-78
2023/07/28 09:43:39;;;;;;;3.30;2.37;;;24.30;94.30;;;;;;5056251;28;20210;-75
2023/07/28 09:46:10;;;;;;;6.03;2.40;;;24.30;94.80;;;;;;5057751;28;20208;-76
2023/07/28 09:48:39;;;;;;;3.20;2.37;;;24.40;96.50;;;;;;5057773;28;20216;-74
2023/07/28 09:51:12;;;;;;;3.17;2.20;;;24.60;95.40;;;;;;5044313;28;20247;-77
2023/07/28 09:53:45;;;;;;;5.60;2.57;;;24.60;96.00;;;;;;5039732;28;20213;-76
2023/07/28 09:56:16;;;;;;;4.83;2.50;;;24.80;94.70;;;;;;5040491;28;20228;-75
2023/07/28 09:58:50;;;;;;;4.30;2.43;;;24.80;93.70;;;;;;5037332;28;20216;-76
2023/07/28 10:01:21;;;;;;;3.40;2.40;;;24.50;94.40;;;;;;5037755;28;20196;-82
2023/07/28 10:03:50;;;;;;;3.10;2.37;;;24.60;95.30;;;;;;5036503;28;20209;-78
2023/07/28 10:06:23;;;;;;;5.73;2.60;;;24.60;94.80;;;;;;5039112;28;20205;-74
2023/07/28 10:08:51;;;;;;;6.93;2.70;;;24.60;93.80;;;;;;5054627;28;20251;-74
2023/07/28 10:11:21;;;;;;;10.43;2.90;;;24.80;94.10;;;;;;5056430;28;20214;-77
2023/07/28 10:13:52;;;;;;;8.00;3.00;;;25.00;93.20;;;;;;5055660;28;20638;-75
2023/07/28 10:16:31;;;;;;;6.13;2.80;;;25.20;92.30;;;;;;5051040;28;20239;-77
2023/07/28 10:19:00;;;;;;;7.37;2.73;;;25.40;90.50;;;;;;5037463;28;20283;-76
2023/07/28 10:21:31;;;;;;;3.33;2.43;;;25.30;90.40;;;;;;5056802;28;20274;-77
2023/07/28 10:24:00;;;;;;;3.60;2.43;;;25.40;90.10;;;;;;5057047;28;20218;-76
2023/07/28 10:26:38;;;;;;;6.83;2.67;;;26.00;91.10;;;;;;5055924;28;20576;-77
2023/07/28 10:29:11;;;;;;;3.57;2.43;;;26.20;86.10;;;;;;5062411;28;20216;-77
2023/07/28 10:31:51;;;;;;;3.97;2.50;;;26.60;86.70;;;;;;5068657;28;20211;-74
2023/07/28 10:34:21;;;;;;;4.63;2.53;;;26.30;83.50;;;;;;5060312;28;20209;-77
2023/07/28 10:36:58;;;;;;;13.77;3.40;;;26.30;85.60;;;;;;5047898;28;20231;-76
2023/07/28 10:39:27;;;;;;;12.67;3.33;;;26.00;84.70;;;;;;5049926;28;20243;-76
2023/07/28 10:42:04;;;;;;;14.17;2.87;;;25.50;85.70;;;;;;5050076;28;20263;-74
2023/07/28 10:44:32;;;;;;;5.10;2.33;;;25.40;86.50;;;;;;5050645;28;20204;-74
2023/07/28 10:47:02;;;;;;;2.70;2.37;;;25.30;89.90;;;;;;5048982;28;20209;-78
2023/07/28 10:49:30;;;;;;;4.57;2.70;;;25.00;88.40;;;;;;5050297;28;20204;-77
2023/07/28 10:51:59;;;;;;;5.50;2.80;;;24.90;90.60;;;;;;5050538;28;20679;-78
2023/07/28 10:54:27;;;;;;;3.40;2.40;;;24.80;91.80;;;;;;5048864;28;20217;-76
2023/07/28 10:56:55;;;;;;;3.03;2.40;;;24.70;92.40;;;;;;5046748;28;20256;-75
2023/07/28 10:59:23;;;;;;;4.73;3.47;;;24.90;92.40;;;;;;5046797;28;20215;-76
2023/07/28 11:01:51;;;;;;;5.13;2.77;;;25.00;92.00;;;;;;5039927;28;20209;-76
2023/07/28 11:04:23;;;;;;;3.90;2.80;;;25.00;93.20;;;;;;5042733;28;20213;-76
2023/07/28 11:06:52;;;;;;;3.87;2.53;;;25.20;91.10;;;;;;5040256;28;20244;-74
2023/07/28 11:09:23;;;;;;;6.60;3.00;;;25.30;90.70;;;;;;5039790;28;20255;-75
2023/07/28 11:11:52;;;;;;;5.97;2.87;;;25.40;87.60;;;;;;5040255;28;20278;-76
2023/07/28 11:14:21;;;;;;;6.77;2.80;;;25.20;86.90;;;;;;5046994;28;20292;-75
2023/07/28 11:16:49;;;;;;;5.93;2.60;;;25.20;86.30;;;;;;5047249;28;20228;-75
2023/07/28 11:19:24;;;;;;;3.90;2.60;;;25.00;87.70;;;;;;5062291;28;20624;-75
2023/07/28 11:21:58;;;;;;;3.03;2.67;;;24.80;89.50;;;;;;5065276;28;20224;-76
2023/07/28 11:24:26;;;;;;;4.60;2.57;;;24.70;90.20;;;;;;5066740;28;20259;-75
2023/07/28 11:26:58;;;;;;;5.03;2.60;;;24.60;91.70;;;;;;5068085;28;20231;-78
2023/07/28 11:29:27;;;;;;;3.40;2.40;;;24.50;92.40;;;;;;5066960;28;20203;-77
2023/07/28 11:31:56;;;;;;;3.93;2.53;;;24.40;93.60;;;;;;5053728;28;20228;-77
2023/07/28 11:34:24;;;;;;;3.40;2.40;;;24.20;93.60;;;;;;5038274;28;20209;-76
2023/07/28 11:36:54;;;;;;;2.60;2.37;;;24.20;94.10;;;;;;5048139;28;20291;-79
2023/07/28 11:39:22;;;;;;;2.70;2.33;;;24.20;93.20;;;;;;5051174;28;20256;-75
2023/07/28 11:41:53;;;;;;;3.20;2.50;;;24.10;94.10;;;;;;5052914;28;20349;-74
2023/07/28 11:44:22;;;;;;;4.90;2.50;;;24.00;94.30;;;;;;5050437;28;20642;-78
2023/07/28 11:46:53;;;;;;;5.20;2.70;;;24.00;94.00;;;;;;5051555;28;20212;-78
2023/07/28 11:49:22;;;;;;;5.47;2.70;;;24.00;93.30;;;;;;5048263;28;20213;-77
2023/07/28 11:51:53;;;;;;;4.00;2.60;;;23.80;93.80;;;;;;5052613;28;20212;-77
2023/07/28 11:54:25;;;;;;;3.60;2.50;;;23.60;94.00;;;;;;5053623;28;20236;-76
2023/07/28 11:56:56;;;;;;;3.10;2.50;;;23.50;94.80;;;;;;5049251;28;20229;-76
2023/07/28 11:59:24;;;;;;;3.83;2.47;;;23.20;95.30;;;;;;5046875;28;20192;-78
2023/07/28 12:01:54;;;;;;;4.10;2.97;;;23.00;96.20;;;;;;5048902;28;20286;-78
2023/07/28 12:04:27;;;;;;;4.67;2.90;;;22.80;99.80;;;;;;5051804;28;20205;-78
2023/07/28 12:07:06;;;;;;;2.80;2.60;;;22.30;99.90;;;;;;5050277;28;20216;-77
2023/07/28 12:09:51;;;;;;;5.63;2.70;;;22.00;99.90;;;;;;5047246;28;20292;-76
2023/07/28 12:12:33;;;;;;;3.83;2.93;;;21.80;99.90;;;;;;5041910;28;20194;-78
2023/07/28 12:15:20;;;;;;;4.27;2.70;;;21.80;99.90;;;;;;5037614;28;20208;-77
2023/07/28 12:18:09;;;;;;;4.17;2.80;;;21.90;99.90;;;;;;5041377;28;20272;-76
2023/07/28 12:20:41;;;;;;;4.87;2.90;;;22.00;99.90;;;;;;5038763;28;20236;-77
2023/07/28 12:23:10;;;;;;;5.43;2.70;;;22.10;99.90;;;;;;5041709;28;20345;-76
2023/07/28 12:25:43;;;;;;;4.50;2.90;;;22.40;99.90;;;;;;5045641;28;20216;-78
2023/07/28 12:28:12;;;;;;;4.33;2.97;;;22.60;99.90;;;;;;5065225;28;20188;-78
2023/07/28 12:30:44;;;;;;;3.90;2.80;;;22.70;99.90;;;;;;5065358;28;20275;-78
2023/07/28 12:33:12;;;;;;;3.37;2.77;;;22.80;99.90;;;;;;5058997;28;20300;-76
2023/07/28 12:35:43;;;;;;;6.20;2.80;;;23.00;99.90;;;;;;5041601;28;20237;-76
2023/07/28 12:38:14;;;;;;;5.10;2.80;;;23.20;99.90;;;;;;5036854;28;20647;-75
2023/07/28 12:40:46;;;;;;;3.20;2.67;;;23.70;99.90;;;;;;5036428;28;20205;-77
2023/07/28 12:43:17;;;;;;;4.17;2.90;;;23.70;99.90;;;;;;5036790;28;20271;-74
2023/07/28 12:45:48;;;;;;;5.00;2.80;;;23.90;99.90;;;;;;5036342;28;20217;-75
2023/07/28 12:48:19;;;;;;;3.07;2.37;;;23.90;99.90;;;;;;5034947;28;20269;-77
2023/07/28 12:50:49;;;;;;;4.27;2.47;;;24.00;99.90;;;;;;5035012;28;20240;-75
2023/07/28 12:53:17;;;;;;;3.73;2.57;;;24.40;99.90;;;;;;5036406;28;20232;-77
2023/07/28 12:55:51;;;;;;;5.07;2.70;;;24.50;99.90;;;;;;5036519;28;20193;-77